sensor_id;sensor_type;location;lat;lon;timestamp;temperature;humidity
52016;DHT22;38032;53.326;6.472;2022-12-01T00:00:55;7.40;99.90
52016;DHT22;38032;53.326;6.472;2022-12-01T00:03:22;7.40;99.90
52016;DHT22;38032;53.326;6.472;2022-12-01T00:05:57;7.30;99.90
52016;DHT22;38032;53.326;6.472;2022-12-01T00:08:23;7.30;99.90
52016;DHT22;38032;53.326;6.472;2022-12-01T00:10:49;7.30;99.90
52016;DHT22;38032;53.326;6.472;2022-12-01T00:13:15;7.30;99.90
52016;DHT22;38032;53.326;6.472;2022-12-01T00:15:41;7.30;99.90
52016;DHT22;38032;53.326;6.472;2022-12-01T00:18:08;7.30;99.90
52016;DHT22;38032;53.326;6.472;2022-12-01T00:20:35;7.30;99.90
52016;DHT22;38032;53.326;6.472;2022-12-01T00:23:00;7.30;99.90
52016;DHT22;38032;53.326;6.472;2022-12-01T00:25:27;7.30;99.90
52016;DHT22;38032;53.326;6.472;2022-12-01T00:27:53;7.20;99.90
52016;DHT22;38032;53.326;6.472;2022-12-01T00:30:20;7.20;99.90
52016;DHT22;38032;53.326;6.472;2022-12-01T00:32:47;7.30;99.90
52016;DHT22;38032;53.326;6.472;2022-12-01T00:35:14;7.30;99.90
52016;DHT22;38032;53.326;6.472;2022-12-01T00:37:40;7.30;99.90
52016;DHT22;38032;53.326;6.472;2022-12-01T00:40:07;7.30;99.90
52016;DHT22;38032;53.326;6.472;2022-12-01T00:42:33;7.30;99.90
52016;DHT22;38032;53.326;6.472;2022-12-01T00:44:59;7.30;99.90
52016;DHT22;38032;53.326;6.472;2022-12-01T00:47:25;7.20;99.90
52016;DHT22;38032;53.326;6.472;2022-12-01T00:49:50;7.20;99.90
52016;DHT22;38032;53.326;6.472;2022-12-01T00:52:17;7.20;99.90
52016;DHT22;38032;53.326;6.472;2022-12-01T00:54:44;7.20;99.90
52016;DHT22;38032;53.326;6.472;2022-12-01T00:57:10;7.20;99.90
52016;DHT22;38032;53.326;6.472;2022-12-01T00:59:36;7.30;99.90
52016;DHT22;38032;53.326;6.472;2022-12-01T01:02:03;7.30;99.90
52016;DHT22;38032;53.326;6.472;2022-12-01T01:04:30;7.30;99.90
52016;DHT22;38032;53.326;6.472;2022-12-01T01:06:56;7.20;99.90
52016;DHT22;38032;53.326;6.472;2022-12-01T01:09:22;7.20;99.90
52016;DHT22;38032;53.326;6.472;2022-12-01T01:11:48;7.20;99.90
52016;DHT22;38032;53.326;6.472;2022-12-01T01:14:14;7.20;99.90
52016;DHT22;38032;53.326;6.472;2022-12-01T01:16:39;7.20;99.90
52016;DHT22;38032;53.326;6.472;2022-12-01T01:19:05;7.20;99.90
52016;DHT22;38032;53.326;6.472;2022-12-01T01:21:31;7.20;99.90
52016;DHT22;38032;53.326;6.472;2022-12-01T01:23:57;7.20;99.90
52016;DHT22;38032;53.326;6.472;2022-12-01T01:26:26;7.20;99.90
52016;DHT22;38032;53.326;6.472;2022-12-01T01:28:55;7.20;99.90
52016;DHT22;38032;53.326;6.472;2022-12-01T01:31:23;7.20;99.90
52016;DHT22;38032;53.326;6.472;2022-12-01T01:33:49;7.20;99.90
52016;DHT22;38032;53.326;6.472;2022-12-01T01:36:16;7.20;99.90
52016;DHT22;38032;53.326;6.472;2022-12-01T01:38:42;7.20;99.90
52016;DHT22;38032;53.326;6.472;2022-12-01T01:41:09;7.20;99.90
52016;DHT22;38032;53.326;6.472;2022-12-01T01:43:41;7.20;99.90
52016;DHT22;38032;53.326;6.472;2022-12-01T01:46:11;7.20;99.90
52016;DHT22;38032;53.326;6.472;2022-12-01T01:48:37;7.10;99.90
52016;DHT22;38032;53.326;6.472;2022-12-01T01:51:06;7.10;99.90
52016;DHT22;38032;53.326;6.472;2022-12-01T01:53:32;7.20;99.90
52016;DHT22;38032;53.326;6.472;2022-12-01T01:55:59;7.10;99.90
52016;DHT22;38032;53.326;6.472;2022-12-01T01:58:26;7.10;99.90
52016;DHT22;38032;53.326;6.472;2022-12-01T02:00:52;7.20;99.90
52016;DHT22;38032;53.326;6.472;2022-12-01T02:03:19;7.20;99.90
52016;DHT22;38032;53.326;6.472;2022-12-01T02:05:46;7.20;99.90
52016;DHT22;38032;53.326;6.472;2022-12-01T02:08:12;7.20;99.90
52016;DHT22;38032;53.326;6.472;2022-12-01T02:11:05;7.20;99.90
52016;DHT22;38032;53.326;6.472;2022-12-01T02:16:40;7.20;99.90
52016;DHT22;38032;53.326;6.472;2022-12-01T02:22:13;7.20;99.90
52016;DHT22;38032;53.326;6.472;2022-12-01T02:24:51;7.20;99.90
52016;DHT22;38032;53.326;6.472;2022-12-01T02:30:04;7.20;99.90
52016;DHT22;38032;53.326;6.472;2022-12-01T02:35:22;7.20;99.90
52016;DHT22;38032;53.326;6.472;2022-12-01T02:38:03;7.20;99.90
52016;DHT22;38032;53.326;6.472;2022-12-01T02:45:57;7.20;99.90
52016;DHT22;38032;53.326;6.472;2022-12-01T02:48:27;7.20;99.90
52016;DHT22;38032;53.326;6.472;2022-12-01T02:50:57;7.20;99.90
52016;DHT22;38032;53.326;6.472;2022-12-01T02:53:24;7.20;99.90
52016;DHT22;38032;53.326;6.472;2022-12-01T02:55:53;7.20;99.90
52016;DHT22;38032;53.326;6.472;2022-12-01T02:58:20;7.20;99.90
52016;DHT22;38032;53.326;6.472;2022-12-01T03:01:14;7.20;99.90
52016;DHT22;38032;53.326;6.472;2022-12-01T03:04:07;7.20;99.90
52016;DHT22;38032;53.326;6.472;2022-12-01T03:06:52;7.20;99.90
52016;DHT22;38032;53.326;6.472;2022-12-01T03:09:45;7.20;99.90
52016;DHT22;38032;53.326;6.472;2022-12-01T03:14:45;7.20;99.90
52016;DHT22;38032;53.326;6.472;2022-12-01T03:17:18;7.30;99.90
52016;DHT22;38032;53.326;6.472;2022-12-01T03:19:57;7.30;99.90
52016;DHT22;38032;53.326;6.472;2022-12-01T03:22:30;7.30;99.90
52016;DHT22;38032;53.326;6.472;2022-12-01T03:25:00;7.30;99.90
52016;DHT22;38032;53.326;6.472;2022-12-01T03:27:32;7.30;99.90
52016;DHT22;38032;53.326;6.472;2022-12-01T03:30:00;7.30;99.90
52016;DHT22;38032;53.326;6.472;2022-12-01T03:32:32;7.30;99.90
52016;DHT22;38032;53.326;6.472;2022-12-01T03:35:05;7.30;99.90
52016;DHT22;38032;53.326;6.472;2022-12-01T03:37:39;7.20;99.90
52016;DHT22;38032;53.326;6.472;2022-12-01T03:40:09;7.20;99.90
52016;DHT22;38032;53.326;6.472;2022-12-01T03:42:41;7.20;99.90
52016;DHT22;38032;53.326;6.472;2022-12-01T03:45:16;7.20;99.90
52016;DHT22;38032;53.326;6.472;2022-12-01T03:47:44;7.20;99.90
52016;DHT22;38032;53.326;6.472;2022-12-01T03:50:11;7.20;99.90
52016;DHT22;38032;53.326;6.472;2022-12-01T03:55:29;7.20;99.90
52016;DHT22;38032;53.326;6.472;2022-12-01T03:58:00;7.20;99.90
52016;DHT22;38032;53.326;6.472;2022-12-01T04:00:27;7.20;99.90
52016;DHT22;38032;53.326;6.472;2022-12-01T04:02:55;7.10;99.90
52016;DHT22;38032;53.326;6.472;2022-12-01T04:05:21;7.20;99.90
52016;DHT22;38032;53.326;6.472;2022-12-01T04:07:47;7.20;99.90
52016;DHT22;38032;53.326;6.472;2022-12-01T04:10:13;7.20;99.90
52016;DHT22;38032;53.326;6.472;2022-12-01T04:12:39;7.20;99.90
52016;DHT22;38032;53.326;6.472;2022-12-01T04:15:07;7.20;99.90
52016;DHT22;38032;53.326;6.472;2022-12-01T04:17:35;7.20;99.90
52016;DHT22;38032;53.326;6.472;2022-12-01T04:20:02;7.10;99.90
52016;DHT22;38032;53.326;6.472;2022-12-01T04:22:28;7.10;99.90
52016;DHT22;38032;53.326;6.472;2022-12-01T04:24:54;7.10;99.90
52016;DHT22;38032;53.326;6.472;2022-12-01T04:27:20;7.10;99.90
52016;DHT22;38032;53.326;6.472;2022-12-01T04:29:46;7.10;99.90
52016;DHT22;38032;53.326;6.472;2022-12-01T04:32:12;7.10;99.90
52016;DHT22;38032;53.326;6.472;2022-12-01T04:34:38;7.10;99.90
52016;DHT22;38032;53.326;6.472;2022-12-01T04:37:05;7.20;99.90
52016;DHT22;38032;53.326;6.472;2022-12-01T04:39:32;7.10;99.90
52016;DHT22;38032;53.326;6.472;2022-12-01T04:41:58;7.10;99.90
52016;DHT22;38032;53.326;6.472;2022-12-01T04:44:24;7.10;99.90
52016;DHT22;38032;53.326;6.472;2022-12-01T04:46:50;7.10;99.90
52016;DHT22;38032;53.326;6.472;2022-12-01T04:49:18;7.00;99.90
52016;DHT22;38032;53.326;6.472;2022-12-01T04:51:44;7.00;99.90
52016;DHT22;38032;53.326;6.472;2022-12-01T04:54:11;6.90;99.90
52016;DHT22;38032;53.326;6.472;2022-12-01T04:56:36;6.90;99.90
52016;DHT22;38032;53.326;6.472;2022-12-01T04:59:02;6.80;99.90
52016;DHT22;38032;53.326;6.472;2022-12-01T05:01:28;6.80;99.90
52016;DHT22;38032;53.326;6.472;2022-12-01T05:03:54;6.80;99.90
52016;DHT22;38032;53.326;6.472;2022-12-01T05:06:22;6.80;99.90
52016;DHT22;38032;53.326;6.472;2022-12-01T05:08:49;6.70;99.90
52016;DHT22;38032;53.326;6.472;2022-12-01T05:11:16;6.70;99.90
52016;DHT22;38032;53.326;6.472;2022-12-01T05:13:44;6.60;99.90
52016;DHT22;38032;53.326;6.472;2022-12-01T05:16:13;6.50;99.90
52016;DHT22;38032;53.326;6.472;2022-12-01T05:18:40;6.50;99.90
52016;DHT22;38032;53.326;6.472;2022-12-01T05:21:08;6.40;99.90
52016;DHT22;38032;53.326;6.472;2022-12-01T05:23:36;6.40;99.90
52016;DHT22;38032;53.326;6.472;2022-12-01T05:26:05;6.30;99.90
52016;DHT22;38032;53.326;6.472;2022-12-01T05:28:31;6.30;99.90
52016;DHT22;38032;53.326;6.472;2022-12-01T05:30:58;6.20;99.90
52016;DHT22;38032;53.326;6.472;2022-12-01T05:33:25;6.20;99.90
52016;DHT22;38032;53.326;6.472;2022-12-01T05:35:51;6.20;99.90
52016;DHT22;38032;53.326;6.472;2022-12-01T05:38:18;6.10;99.90
52016;DHT22;38032;53.326;6.472;2022-12-01T05:40:51;6.10;99.90
52016;DHT22;38032;53.326;6.472;2022-12-01T05:43:20;6.10;99.90
52016;DHT22;38032;53.326;6.472;2022-12-01T05:45:46;6.10;99.90
52016;DHT22;38032;53.326;6.472;2022-12-01T05:48:14;6.00;99.90
52016;DHT22;38032;53.326;6.472;2022-12-01T05:50:40;6.00;99.90
52016;DHT22;38032;53.326;6.472;2022-12-01T05:53:06;6.00;99.90
52016;DHT22;38032;53.326;6.472;2022-12-01T05:55:33;6.00;99.90
52016;DHT22;38032;53.326;6.472;2022-12-01T05:57:59;5.90;99.90
52016;DHT22;38032;53.326;6.472;2022-12-01T06:00:25;5.90;99.90
52016;DHT22;38032;53.326;6.472;2022-12-01T06:02:51;5.90;99.90
52016;DHT22;38032;53.326;6.472;2022-12-01T06:05:17;5.80;99.90
52016;DHT22;38032;53.326;6.472;2022-12-01T06:07:43;5.70;99.90
52016;DHT22;38032;53.326;6.472;2022-12-01T06:10:09;5.70;99.90
52016;DHT22;38032;53.326;6.472;2022-12-01T06:12:36;5.60;99.90
52016;DHT22;38032;53.326;6.472;2022-12-01T06:15:05;5.60;99.90
52016;DHT22;38032;53.326;6.472;2022-12-01T06:17:32;5.60;99.90
52016;DHT22;38032;53.326;6.472;2022-12-01T06:19:58;5.50;99.90
52016;DHT22;38032;53.326;6.472;2022-12-01T06:22:24;5.50;99.90
52016;DHT22;38032;53.326;6.472;2022-12-01T06:24:50;5.50;99.90
52016;DHT22;38032;53.326;6.472;2022-12-01T06:27:16;5.50;99.90
52016;DHT22;38032;53.326;6.472;2022-12-01T06:29:42;5.50;99.90
52016;DHT22;38032;53.326;6.472;2022-12-01T06:32:08;5.40;99.90
52016;DHT22;38032;53.326;6.472;2022-12-01T06:34:33;5.20;99.90
52016;DHT22;38032;53.326;6.472;2022-12-01T06:36:59;5.00;99.90
52016;DHT22;38032;53.326;6.472;2022-12-01T06:39:25;4.90;99.90
52016;DHT22;38032;53.326;6.472;2022-12-01T06:41:51;4.90;99.90
52016;DHT22;38032;53.326;6.472;2022-12-01T06:44:17;4.70;99.90
52016;DHT22;38032;53.326;6.472;2022-12-01T06:46:43;4.60;99.90
52016;DHT22;38032;53.326;6.472;2022-12-01T06:49:10;4.50;99.90
52016;DHT22;38032;53.326;6.472;2022-12-01T06:51:37;4.50;99.90
52016;DHT22;38032;53.326;6.472;2022-12-01T06:54:03;4.40;99.90
52016;DHT22;38032;53.326;6.472;2022-12-01T06:56:29;4.40;99.90
52016;DHT22;38032;53.326;6.472;2022-12-01T06:58:55;4.30;99.90
52016;DHT22;38032;53.326;6.472;2022-12-01T07:01:22;4.30;99.90
52016;DHT22;38032;53.326;6.472;2022-12-01T07:03:48;4.30;99.90
52016;DHT22;38032;53.326;6.472;2022-12-01T07:06:14;4.30;99.90
52016;DHT22;38032;53.326;6.472;2022-12-01T07:08:40;4.30;99.90
52016;DHT22;38032;53.326;6.472;2022-12-01T07:11:08;4.40;99.90
52016;DHT22;38032;53.326;6.472;2022-12-01T07:13:35;4.40;99.90
52016;DHT22;38032;53.326;6.472;2022-12-01T07:16:01;4.50;99.90
52016;DHT22;38032;53.326;6.472;2022-12-01T07:18:28;4.50;99.90
52016;DHT22;38032;53.326;6.472;2022-12-01T07:20:58;4.60;99.90
52016;DHT22;38032;53.326;6.472;2022-12-01T07:23:24;4.60;99.90
52016;DHT22;38032;53.326;6.472;2022-12-01T07:25:59;4.50;99.90
52016;DHT22;38032;53.326;6.472;2022-12-01T07:28:26;4.60;99.90
52016;DHT22;38032;53.326;6.472;2022-12-01T07:30:52;4.60;99.90
52016;DHT22;38032;53.326;6.472;2022-12-01T07:33:18;4.70;99.90
52016;DHT22;38032;53.326;6.472;2022-12-01T07:35:44;4.70;99.90
52016;DHT22;38032;53.326;6.472;2022-12-01T07:38:10;4.70;99.90
52016;DHT22;38032;53.326;6.472;2022-12-01T07:40:36;4.70;99.90
52016;DHT22;38032;53.326;6.472;2022-12-01T07:43:01;4.80;99.90
52016;DHT22;38032;53.326;6.472;2022-12-01T07:45:28;4.80;99.90
52016;DHT22;38032;53.326;6.472;2022-12-01T07:47:54;4.80;99.90
52016;DHT22;38032;53.326;6.472;2022-12-01T07:50:19;4.80;99.90
52016;DHT22;38032;53.326;6.472;2022-12-01T07:52:49;4.80;99.90
52016;DHT22;38032;53.326;6.472;2022-12-01T07:55:15;4.80;99.90
52016;DHT22;38032;53.326;6.472;2022-12-01T07:57:41;4.90;99.90
52016;DHT22;38032;53.326;6.472;2022-12-01T08:00:08;4.80;99.90
52016;DHT22;38032;53.326;6.472;2022-12-01T08:02:33;4.90;99.90
52016;DHT22;38032;53.326;6.472;2022-12-01T08:04:59;4.90;99.90
52016;DHT22;38032;53.326;6.472;2022-12-01T08:07:25;4.90;99.90
52016;DHT22;38032;53.326;6.472;2022-12-01T08:09:51;5.00;99.90
52016;DHT22;38032;53.326;6.472;2022-12-01T08:12:17;5.00;99.90
52016;DHT22;38032;53.326;6.472;2022-12-01T08:14:43;5.10;99.90
52016;DHT22;38032;53.326;6.472;2022-12-01T08:17:08;5.10;99.90
52016;DHT22;38032;53.326;6.472;2022-12-01T08:19:34;5.20;99.90
52016;DHT22;38032;53.326;6.472;2022-12-01T08:22:00;5.30;99.90
52016;DHT22;38032;53.326;6.472;2022-12-01T08:24:26;5.40;99.90
52016;DHT22;38032;53.326;6.472;2022-12-01T08:26:52;5.40;99.90
52016;DHT22;38032;53.326;6.472;2022-12-01T08:29:18;5.50;99.90
52016;DHT22;38032;53.326;6.472;2022-12-01T08:31:43;5.60;99.90
52016;DHT22;38032;53.326;6.472;2022-12-01T08:34:09;5.70;99.90
52016;DHT22;38032;53.326;6.472;2022-12-01T08:36:36;5.80;99.90
52016;DHT22;38032;53.326;6.472;2022-12-01T08:39:02;5.90;99.90
52016;DHT22;38032;53.326;6.472;2022-12-01T08:41:28;5.90;99.90
52016;DHT22;38032;53.326;6.472;2022-12-01T08:43:56;6.00;99.90
52016;DHT22;38032;53.326;6.472;2022-12-01T08:46:24;6.20;99.90
52016;DHT22;38032;53.326;6.472;2022-12-01T08:48:50;6.50;99.90
52016;DHT22;38032;53.326;6.472;2022-12-01T08:51:17;6.80;99.90
52016;DHT22;38032;53.326;6.472;2022-12-01T08:53:46;7.00;99.90
52016;DHT22;38032;53.326;6.472;2022-12-01T08:56:16;7.20;99.90
52016;DHT22;38032;53.326;6.472;2022-12-01T08:58:43;7.50;99.90
52016;DHT22;38032;53.326;6.472;2022-12-01T09:01:12;7.90;99.90
52016;DHT22;38032;53.326;6.472;2022-12-01T09:03:39;8.20;99.90
52016;DHT22;38032;53.326;6.472;2022-12-01T09:06:09;8.70;99.90
52016;DHT22;38032;53.326;6.472;2022-12-01T09:08:36;8.90;99.90
52016;DHT22;38032;53.326;6.472;2022-12-01T09:11:05;9.00;99.90
52016;DHT22;38032;53.326;6.472;2022-12-01T09:13:32;9.00;99.90
52016;DHT22;38032;53.326;6.472;2022-12-01T09:16:01;9.10;99.90
52016;DHT22;38032;53.326;6.472;2022-12-01T09:18:27;9.10;99.90
52016;DHT22;38032;53.326;6.472;2022-12-01T09:20:54;9.10;99.90
52016;DHT22;38032;53.326;6.472;2022-12-01T09:23:20;9.10;99.90
52016;DHT22;38032;53.326;6.472;2022-12-01T09:25:47;9.00;99.90
52016;DHT22;38032;53.326;6.472;2022-12-01T09:28:13;9.10;99.90
52016;DHT22;38032;53.326;6.472;2022-12-01T09:30:40;9.20;99.90
52016;DHT22;38032;53.326;6.472;2022-12-01T09:33:06;9.30;99.90
52016;DHT22;38032;53.326;6.472;2022-12-01T09:35:32;9.30;99.90
52016;DHT22;38032;53.326;6.472;2022-12-01T09:37:58;9.50;99.90
52016;DHT22;38032;53.326;6.472;2022-12-01T09:40:30;9.80;99.90
52016;DHT22;38032;53.326;6.472;2022-12-01T09:43:00;10.00;99.90
52016;DHT22;38032;53.326;6.472;2022-12-01T09:45:30;9.90;99.90
52016;DHT22;38032;53.326;6.472;2022-12-01T09:47:59;10.10;99.90
52016;DHT22;38032;53.326;6.472;2022-12-01T09:50:28;10.00;99.90
52016;DHT22;38032;53.326;6.472;2022-12-01T09:53:05;9.90;99.90
52016;DHT22;38032;53.326;6.472;2022-12-01T09:55:33;9.80;99.90
52016;DHT22;38032;53.326;6.472;2022-12-01T09:58:01;9.70;99.90
52016;DHT22;38032;53.326;6.472;2022-12-01T10:00:31;9.60;99.90
52016;DHT22;38032;53.326;6.472;2022-12-01T10:05:43;9.40;99.90
52016;DHT22;38032;53.326;6.472;2022-12-01T10:08:14;9.40;99.90
52016;DHT22;38032;53.326;6.472;2022-12-01T10:10:45;9.40;99.90
52016;DHT22;38032;53.326;6.472;2022-12-01T10:13:16;9.50;99.90
52016;DHT22;38032;53.326;6.472;2022-12-01T10:18:47;9.70;99.90
52016;DHT22;38032;53.326;6.472;2022-12-01T10:24:26;9.70;99.90
52016;DHT22;38032;53.326;6.472;2022-12-01T10:26:57;9.70;99.90
52016;DHT22;38032;53.326;6.472;2022-12-01T10:29:46;9.70;99.90
52016;DHT22;38032;53.326;6.472;2022-12-01T10:32:37;9.80;99.90
52016;DHT22;38032;53.326;6.472;2022-12-01T10:35:04;9.90;99.90
52016;DHT22;38032;53.326;6.472;2022-12-01T10:37:30;10.20;99.90
52016;DHT22;38032;53.326;6.472;2022-12-01T10:39:57;10.20;99.90
52016;DHT22;38032;53.326;6.472;2022-12-01T10:42:33;10.20;99.90
52016;DHT22;38032;53.326;6.472;2022-12-01T10:45:04;10.30;99.90
52016;DHT22;38032;53.326;6.472;2022-12-01T10:47:30;10.50;99.90
52016;DHT22;38032;53.326;6.472;2022-12-01T10:49:57;10.60;99.90
52016;DHT22;38032;53.326;6.472;2022-12-01T10:52:41;10.70;99.90
52016;DHT22;38032;53.326;6.472;2022-12-01T10:57:48;11.00;99.90
52016;DHT22;38032;53.326;6.472;2022-12-01T11:00:23;11.30;99.90
52016;DHT22;38032;53.326;6.472;2022-12-01T11:02:50;11.40;99.90
52016;DHT22;38032;53.326;6.472;2022-12-01T11:05:25;11.50;99.90
52016;DHT22;38032;53.326;6.472;2022-12-01T11:07:53;11.70;99.90
52016;DHT22;38032;53.326;6.472;2022-12-01T11:12:52;12.00;99.90
52016;DHT22;38032;53.326;6.472;2022-12-01T11:15:20;12.10;99.90
52016;DHT22;38032;53.326;6.472;2022-12-01T11:20:29;12.00;99.90
52016;DHT22;38032;53.326;6.472;2022-12-01T11:25:34;11.70;99.90
52016;DHT22;38032;53.326;6.472;2022-12-01T11:30:31;11.50;99.90
52016;DHT22;38032;53.326;6.472;2022-12-01T11:32:59;11.40;99.90
52016;DHT22;38032;53.326;6.472;2022-12-01T11:35:29;11.40;99.90
52016;DHT22;38032;53.326;6.472;2022-12-01T11:37:58;11.30;99.90
52016;DHT22;38032;53.326;6.472;2022-12-01T11:40:28;11.20;99.90
52016;DHT22;38032;53.326;6.472;2022-12-01T11:42:58;11.20;99.90
52016;DHT22;38032;53.326;6.472;2022-12-01T11:45:29;11.10;99.90
52016;DHT22;38032;53.326;6.472;2022-12-01T11:48:08;11.00;99.90
52016;DHT22;38032;53.326;6.472;2022-12-01T11:51:00;10.90;99.90
52016;DHT22;38032;53.326;6.472;2022-12-01T11:53:35;10.80;99.90
52016;DHT22;38032;53.326;6.472;2022-12-01T11:56:23;10.80;99.90
52016;DHT22;38032;53.326;6.472;2022-12-01T11:58:58;10.70;99.90
52016;DHT22;38032;53.326;6.472;2022-12-01T12:04:02;10.70;99.90
52016;DHT22;38032;53.326;6.472;2022-12-01T12:06:52;10.70;99.90
52016;DHT22;38032;53.326;6.472;2022-12-01T12:09:29;10.70;99.90
52016;DHT22;38032;53.326;6.472;2022-12-01T12:12:10;10.70;99.90
52016;DHT22;38032;53.326;6.472;2022-12-01T12:17:57;10.60;99.90
52016;DHT22;38032;53.326;6.472;2022-12-01T12:20:41;10.60;99.90
52016;DHT22;38032;53.326;6.472;2022-12-01T12:28:51;10.50;99.90
52016;DHT22;38032;53.326;6.472;2022-12-01T12:31:48;10.50;99.90
52016;DHT22;38032;53.326;6.472;2022-12-01T12:34:39;10.30;99.90
52016;DHT22;38032;53.326;6.472;2022-12-01T12:37:39;10.30;99.90
52016;DHT22;38032;53.326;6.472;2022-12-01T12:43:21;10.20;99.90
52016;DHT22;38032;53.326;6.472;2022-12-01T12:46:01;10.20;99.90
52016;DHT22;38032;53.326;6.472;2022-12-01T12:51:19;10.30;99.90
52016;DHT22;38032;53.326;6.472;2022-12-01T12:53:54;10.40;99.90
52016;DHT22;38032;53.326;6.472;2022-12-01T12:56:25;10.50;99.90
52016;DHT22;38032;53.326;6.472;2022-12-01T12:59:18;10.50;99.90
52016;DHT22;38032;53.326;6.472;2022-12-01T13:04:24;10.30;99.90
52016;DHT22;38032;53.326;6.472;2022-12-01T13:06:59;10.10;99.90
52016;DHT22;38032;53.326;6.472;2022-12-01T13:09:33;10.00;99.90
52016;DHT22;38032;53.326;6.472;2022-12-01T13:12:08;9.80;99.90
52016;DHT22;38032;53.326;6.472;2022-12-01T13:14:45;9.80;99.90
52016;DHT22;38032;53.326;6.472;2022-12-01T13:17:22;9.70;99.90
52016;DHT22;38032;53.326;6.472;2022-12-01T13:19:50;9.70;99.90
52016;DHT22;38032;53.326;6.472;2022-12-01T13:22:17;9.60;99.90
52016;DHT22;38032;53.326;6.472;2022-12-01T13:24:45;9.50;99.90
52016;DHT22;38032;53.326;6.472;2022-12-01T13:27:17;9.50;99.90
52016;DHT22;38032;53.326;6.472;2022-12-01T13:29:47;9.40;99.90
52016;DHT22;38032;53.326;6.472;2022-12-01T13:32:34;9.40;99.90
52016;DHT22;38032;53.326;6.472;2022-12-01T13:35:06;9.30;99.90
52016;DHT22;38032;53.326;6.472;2022-12-01T13:37:34;9.30;99.90
52016;DHT22;38032;53.326;6.472;2022-12-01T13:40:22;9.30;99.90
52016;DHT22;38032;53.326;6.472;2022-12-01T13:43:01;9.30;99.90
52016;DHT22;38032;53.326;6.472;2022-12-01T13:45:31;9.30;99.90
52016;DHT22;38032;53.326;6.472;2022-12-01T13:47:59;9.30;99.90
52016;DHT22;38032;53.326;6.472;2022-12-01T13:50:54;9.30;99.90
52016;DHT22;38032;53.326;6.472;2022-12-01T14:04:17;9.10;99.90
52016;DHT22;38032;53.326;6.472;2022-12-01T14:06:48;9.10;99.90
52016;DHT22;38032;53.326;6.472;2022-12-01T14:09:37;9.10;99.90
52016;DHT22;38032;53.326;6.472;2022-12-01T14:12:16;9.00;99.90
52016;DHT22;38032;53.326;6.472;2022-12-01T14:14:51;9.00;99.90
52016;DHT22;38032;53.326;6.472;2022-12-01T14:17:29;9.00;99.90
52016;DHT22;38032;53.326;6.472;2022-12-01T14:20:05;9.00;99.90
52016;DHT22;38032;53.326;6.472;2022-12-01T14:22:37;8.90;99.90
52016;DHT22;38032;53.326;6.472;2022-12-01T14:25:24;8.90;99.90
52016;DHT22;38032;53.326;6.472;2022-12-01T14:27:54;8.80;99.90
52016;DHT22;38032;53.326;6.472;2022-12-01T14:38:53;8.70;99.90
52016;DHT22;38032;53.326;6.472;2022-12-01T14:41:37;8.70;99.90
52016;DHT22;38032;53.326;6.472;2022-12-01T14:50:05;8.60;99.90
52016;DHT22;38032;53.326;6.472;2022-12-01T14:52:39;8.60;99.90
52016;DHT22;38032;53.326;6.472;2022-12-01T14:55:20;8.50;99.90
52016;DHT22;38032;53.326;6.472;2022-12-01T14:57:49;8.50;99.90
52016;DHT22;38032;53.326;6.472;2022-12-01T15:00:20;8.50;99.90
52016;DHT22;38032;53.326;6.472;2022-12-01T15:02:50;8.50;99.90
52016;DHT22;38032;53.326;6.472;2022-12-01T15:05:19;8.50;99.90
52016;DHT22;38032;53.326;6.472;2022-12-01T15:07:48;8.50;99.90
52016;DHT22;38032;53.326;6.472;2022-12-01T15:10:17;8.40;99.90
52016;DHT22;38032;53.326;6.472;2022-12-01T15:12:44;8.40;99.90
52016;DHT22;38032;53.326;6.472;2022-12-01T15:15:21;8.40;99.90
52016;DHT22;38032;53.326;6.472;2022-12-01T15:17:47;8.40;99.90
52016;DHT22;38032;53.326;6.472;2022-12-01T15:20:33;8.30;99.90
52016;DHT22;38032;53.326;6.472;2022-12-01T15:23:01;8.30;99.90
52016;DHT22;38032;53.326;6.472;2022-12-01T15:25:32;8.30;99.90
52016;DHT22;38032;53.326;6.472;2022-12-01T15:30:28;8.20;99.90
52016;DHT22;38032;53.326;6.472;2022-12-01T15:32:54;8.20;99.90
52016;DHT22;38032;53.326;6.472;2022-12-01T15:35:21;8.20;99.90
52016;DHT22;38032;53.326;6.472;2022-12-01T15:37:48;8.10;99.90
52016;DHT22;38032;53.326;6.472;2022-12-01T15:40:17;8.10;99.90
52016;DHT22;38032;53.326;6.472;2022-12-01T15:42:53;8.00;99.90
52016;DHT22;38032;53.326;6.472;2022-12-01T15:45:24;8.00;99.90
52016;DHT22;38032;53.326;6.472;2022-12-01T15:47:51;7.90;99.90
52016;DHT22;38032;53.326;6.472;2022-12-01T15:50:34;7.90;99.90
52016;DHT22;38032;53.326;6.472;2022-12-01T15:53:18;7.80;99.90
52016;DHT22;38032;53.326;6.472;2022-12-01T15:55:47;7.80;99.90
52016;DHT22;38032;53.326;6.472;2022-12-01T15:58:34;7.80;99.90
52016;DHT22;38032;53.326;6.472;2022-12-01T16:03:30;7.70;99.90
52016;DHT22;38032;53.326;6.472;2022-12-01T16:05:57;7.60;99.90
52016;DHT22;38032;53.326;6.472;2022-12-01T16:08:25;7.60;99.90
52016;DHT22;38032;53.326;6.472;2022-12-01T16:11:13;7.60;99.90
52016;DHT22;38032;53.326;6.472;2022-12-01T16:13:46;7.50;99.90
52016;DHT22;38032;53.326;6.472;2022-12-01T16:16:40;7.50;99.90
52016;DHT22;38032;53.326;6.472;2022-12-01T16:21:44;7.40;99.90
52016;DHT22;38032;53.326;6.472;2022-12-01T16:24:30;7.40;99.90
52016;DHT22;38032;53.326;6.472;2022-12-01T16:27:00;7.30;99.90
52016;DHT22;38032;53.326;6.472;2022-12-01T16:29:29;7.30;99.90
52016;DHT22;38032;53.326;6.472;2022-12-01T16:32:08;7.30;99.90
52016;DHT22;38032;53.326;6.472;2022-12-01T16:34:35;7.30;99.90
52016;DHT22;38032;53.326;6.472;2022-12-01T16:37:01;7.30;99.90
52016;DHT22;38032;53.326;6.472;2022-12-01T16:39:27;7.20;99.90
52016;DHT22;38032;53.326;6.472;2022-12-01T16:41:58;7.20;99.90
52016;DHT22;38032;53.326;6.472;2022-12-01T16:44:24;7.20;99.90
52016;DHT22;38032;53.326;6.472;2022-12-01T16:46:50;7.10;99.90
52016;DHT22;38032;53.326;6.472;2022-12-01T16:49:16;7.10;99.90
52016;DHT22;38032;53.326;6.472;2022-12-01T16:51:41;7.10;99.90
52016;DHT22;38032;53.326;6.472;2022-12-01T16:54:08;7.10;99.90
52016;DHT22;38032;53.326;6.472;2022-12-01T16:56:34;7.10;99.90
52016;DHT22;38032;53.326;6.472;2022-12-01T16:59:00;7.00;99.90
52016;DHT22;38032;53.326;6.472;2022-12-01T17:01:27;7.00;99.90
52016;DHT22;38032;53.326;6.472;2022-12-01T17:03:53;7.00;99.90
52016;DHT22;38032;53.326;6.472;2022-12-01T17:06:19;7.00;99.90
52016;DHT22;38032;53.326;6.472;2022-12-01T17:08:45;7.00;99.90
52016;DHT22;38032;53.326;6.472;2022-12-01T17:11:12;6.90;99.90
52016;DHT22;38032;53.326;6.472;2022-12-01T17:13:38;6.90;99.90
52016;DHT22;38032;53.326;6.472;2022-12-01T17:16:06;6.90;99.90
52016;DHT22;38032;53.326;6.472;2022-12-01T17:18:34;6.90;99.90
52016;DHT22;38032;53.326;6.472;2022-12-01T17:21:03;6.90;99.90
52016;DHT22;38032;53.326;6.472;2022-12-01T17:23:29;6.90;99.90
52016;DHT22;38032;53.326;6.472;2022-12-01T17:25:58;6.80;99.90
52016;DHT22;38032;53.326;6.472;2022-12-01T17:28:24;6.70;99.90
52016;DHT22;38032;53.326;6.472;2022-12-01T17:30:50;6.80;99.90
52016;DHT22;38032;53.326;6.472;2022-12-01T17:33:16;6.70;99.90
52016;DHT22;38032;53.326;6.472;2022-12-01T17:35:42;6.70;99.90
52016;DHT22;38032;53.326;6.472;2022-12-01T17:38:08;6.70;99.90